Terminal Aerodrome Forecast
Issued by NWS Sterling, VA

Current Version | Previous Version | Text Only | Print | Product List | Glossary Off
Versions: 1 2 3 4 5 6 7 8 9 10 11 12 13 14 15 16 17 18 19 20 21 22 23 24 25

000
FTUS41 KLWX 261737
TAFDCA
TAF
KDCA 261737Z 2618/2718 19011G17KT P6SM SCT050 BKN090
     FM262200 20010G17KT P6SM -SHRA SCT050 OVC090
     FM270100 20005KT P6SM SCT050 OVC090
     FM270300 14004KT P6SM SCT050 OVC090
     FM271000 20007KT P6SM SCT015 BKN090
     FM271400 21009KT P6SM -SHRA BKN090 BKN100=

USA.gov is the U.S. government's official web portal to all federal, state and local government web resources and services.